sensor_id;sensor_type;location;lat;lon;timestamp;pressure;altitude;pressure_sealevel;temperature;humidity
77685;BME280;66844;46.092;18.268;2023-09-30T00:00:05;99764.97;;;18.69;58.91
77685;BME280;66844;46.092;18.268;2023-09-30T00:00:40;99764.25;;;18.67;59.10
77685;BME280;66844;46.092;18.268;2023-09-30T00:01:11;99758.13;;;18.65;59.47
77685;BME280;66844;46.092;18.268;2023-09-30T00:01:46;99760.22;;;18.61;59.71
77685;BME280;66844;46.092;18.268;2023-09-30T00:02:18;99768.59;;;18.58;60.10
77685;BME280;66844;46.092;18.268;2023-09-30T00:02:50;99763.59;;;18.54;60.01
77685;BME280;66844;46.092;18.268;2023-09-30T00:03:22;99759.22;;;18.53;59.86
77685;BME280;66844;46.092;18.268;2023-09-30T00:03:54;99759.22;;;18.53;60.42
77685;BME280;66844;46.092;18.268;2023-09-30T00:04:27;99762.59;;;18.55;60.22
77685;BME280;66844;46.092;18.268;2023-09-30T00:05:00;99767.13;;;18.54;60.03
77685;BME280;66844;46.092;18.268;2023-09-30T00:05:32;99763.59;;;18.54;60.07
77685;BME280;66844;46.092;18.268;2023-09-30T00:06:04;99771.03;;;18.50;60.22
77685;BME280;66844;46.092;18.268;2023-09-30T00:06:36;99758.69;;;18.48;60.30
77685;BME280;66844;46.092;18.268;2023-09-30T00:07:08;99761.50;;;18.46;60.47
77685;BME280;66844;46.092;18.268;2023-09-30T00:07:40;99764.47;;;18.43;60.42
77685;BME280;66844;46.092;18.268;2023-09-30T00:08:12;99769.75;;;18.45;60.45
77685;BME280;66844;46.092;18.268;2023-09-30T00:08:44;99760.41;;;18.49;59.67
77685;BME280;66844;46.092;18.268;2023-09-30T00:09:17;99764.47;;;18.43;60.37
77685;BME280;66844;46.092;18.268;2023-09-30T00:09:49;99765.50;;;18.42;60.39
77685;BME280;66844;46.092;18.268;2023-09-30T00:10:23;99758.22;;;18.42;60.32
77685;BME280;66844;46.092;18.268;2023-09-30T00:10:55;99760.22;;;18.40;60.19
77685;BME280;66844;46.092;18.268;2023-09-30T00:11:27;99759.50;;;18.38;60.69
77685;BME280;66844;46.092;18.268;2023-09-30T00:11:59;99758.38;;;18.41;60.29
77685;BME280;66844;46.092;18.268;2023-09-30T00:12:31;99760.09;;;18.42;60.30
77685;BME280;66844;46.092;18.268;2023-09-30T00:13:03;99762.06;;;18.40;60.66
77685;BME280;66844;46.092;18.268;2023-09-30T00:13:38;99765.88;;;18.37;60.63
77685;BME280;66844;46.092;18.268;2023-09-30T00:14:10;99761.56;;;18.35;61.08
77685;BME280;66844;46.092;18.268;2023-09-30T00:14:42;99766.97;;;18.35;60.41
77685;BME280;66844;46.092;18.268;2023-09-30T00:15:14;99764.41;;;18.33;60.93
77685;BME280;66844;46.092;18.268;2023-09-30T00:15:47;99768.69;;;18.36;60.89
77685;BME280;66844;46.092;18.268;2023-09-30T00:16:19;99765.13;;;18.35;60.34
77685;BME280;66844;46.092;18.268;2023-09-30T00:16:51;99767.97;;;18.34;61.30
77685;BME280;66844;46.092;18.268;2023-09-30T00:17:23;99760.75;;;18.34;60.44
77685;BME280;66844;46.092;18.268;2023-09-30T00:17:55;99767.31;;;18.41;60.33
77685;BME280;66844;46.092;18.268;2023-09-30T00:18:27;99768.19;;;18.42;59.79
77685;BME280;66844;46.092;18.268;2023-09-30T00:18:59;99763.22;;;18.47;60.05
77685;BME280;66844;46.092;18.268;2023-09-30T00:19:31;99766.91;;;18.46;60.20
77685;BME280;66844;46.092;18.268;2023-09-30T00:20:05;99758.81;;;18.46;59.69
77685;BME280;66844;46.092;18.268;2023-09-30T00:20:37;99757.84;;;18.47;60.08
77685;BME280;66844;46.092;18.268;2023-09-30T00:21:09;99758.81;;;18.46;59.51
77685;BME280;66844;46.092;18.268;2023-09-30T00:21:41;99757.72;;;18.49;59.54
77685;BME280;66844;46.092;18.268;2023-09-30T00:22:13;99760.19;;;18.52;59.28
77685;BME280;66844;46.092;18.268;2023-09-30T00:22:45;99767.28;;;18.53;59.24
77685;BME280;66844;46.092;18.268;2023-09-30T00:23:17;99761.63;;;18.56;58.92
77685;BME280;66844;46.092;18.268;2023-09-30T00:23:50;99754.25;;;18.58;58.46
77685;BME280;66844;46.092;18.268;2023-09-30T00:24:22;99763.78;;;18.62;58.97
77685;BME280;66844;46.092;18.268;2023-09-30T00:24:54;99755.69;;;18.62;58.63
77685;BME280;66844;46.092;18.268;2023-09-30T00:25:26;99750.31;;;18.62;59.28
77685;BME280;66844;46.092;18.268;2023-09-30T00:25:59;99760.22;;;18.61;59.06
77685;BME280;66844;46.092;18.268;2023-09-30T00:26:32;99753.00;;;18.62;59.10
77685;BME280;66844;46.092;18.268;2023-09-30T00:27:04;99754.25;;;18.58;58.93
77685;BME280;66844;46.092;18.268;2023-09-30T00:27:36;99758.53;;;18.60;59.10
77685;BME280;66844;46.092;18.268;2023-09-30T00:28:08;99759.25;;;18.62;58.66
77685;BME280;66844;46.092;18.268;2023-09-30T00:28:40;99760.09;;;18.63;59.30
77685;BME280;66844;46.092;18.268;2023-09-30T00:29:12;99751.16;;;18.62;59.44
77685;BME280;66844;46.092;18.268;2023-09-30T00:29:44;99751.91;;;18.64;58.77
77685;BME280;66844;46.092;18.268;2023-09-30T00:30:16;99755.56;;;18.63;59.18
77685;BME280;66844;46.092;18.268;2023-09-30T00:30:48;99753.00;;;18.62;58.75
77685;BME280;66844;46.092;18.268;2023-09-30T00:31:22;99748.47;;;18.62;59.15
77685;BME280;66844;46.092;18.268;2023-09-30T00:31:54;99749.31;;;18.63;58.66
77685;BME280;66844;46.092;18.268;2023-09-30T00:32:26;99748.19;;;18.65;58.31
77685;BME280;66844;46.092;18.268;2023-09-30T00:32:59;99752.72;;;18.65;58.44
77685;BME280;66844;46.092;18.268;2023-09-30T00:33:31;99751.75;;;18.66;58.68
77685;BME280;66844;46.092;18.268;2023-09-30T00:34:03;99753.84;;;18.62;58.80
77685;BME280;66844;46.092;18.268;2023-09-30T00:34:35;99750.19;;;18.63;58.86
77685;BME280;66844;46.092;18.268;2023-09-30T00:35:07;99752.59;;;18.66;58.23
77685;BME280;66844;46.092;18.268;2023-09-30T00:35:43;99750.78;;;18.67;58.13
77685;BME280;66844;46.092;18.268;2023-09-30T00:36:15;99747.50;;;18.63;58.58
77685;BME280;66844;46.092;18.268;2023-09-30T00:36:47;99754.44;;;18.66;58.75
77685;BME280;66844;46.092;18.268;2023-09-30T00:37:19;99746.38;;;18.66;58.52
77685;BME280;66844;46.092;18.268;2023-09-30T00:37:52;99751.63;;;18.67;58.21
77685;BME280;66844;46.092;18.268;2023-09-30T00:38:25;99753.19;;;18.70;58.23
77685;BME280;66844;46.092;18.268;2023-09-30T00:38:57;99745.38;;;18.67;58.17
77685;BME280;66844;46.092;18.268;2023-09-30T00:39:29;99756.75;;;18.70;58.63
77685;BME280;66844;46.092;18.268;2023-09-30T00:40:02;99752.22;;;18.71;58.21
77685;BME280;66844;46.092;18.268;2023-09-30T00:40:35;99749.38;;;18.72;58.41
77685;BME280;66844;46.092;18.268;2023-09-30T00:41:08;99751.25;;;18.72;58.51
77685;BME280;66844;46.092;18.268;2023-09-30T00:41:40;99749.38;;;18.72;58.40
77685;BME280;66844;46.092;18.268;2023-09-30T00:42:12;99751.09;;;18.73;58.38
77685;BME280;66844;46.092;18.268;2023-09-30T00:42:44;99749.25;;;18.74;58.28
77685;BME280;66844;46.092;18.268;2023-09-30T00:43:20;99749.38;;;18.72;58.14
77685;BME280;66844;46.092;18.268;2023-09-30T00:43:52;99755.78;;;18.71;58.09
77685;BME280;66844;46.092;18.268;2023-09-30T00:44:25;99749.53;;;18.71;58.22
77685;BME280;66844;46.092;18.268;2023-09-30T00:44:57;99744.25;;;18.69;58.27
77685;BME280;66844;46.092;18.268;2023-09-30T00:45:30;99752.06;;;18.72;58.16
77685;BME280;66844;46.092;18.268;2023-09-30T00:46:40;99754.06;;;18.70;58.44
77685;BME280;66844;46.092;18.268;2023-09-30T00:47:14;99759.44;;;18.70;58.70
77685;BME280;66844;46.092;18.268;2023-09-30T00:47:46;99753.47;;;18.67;59.00
77685;BME280;66844;46.092;18.268;2023-09-30T00:48:19;99749.31;;;18.63;59.36
77685;BME280;66844;46.092;18.268;2023-09-30T00:48:52;99751.56;;;18.58;59.78
77685;BME280;66844;46.092;18.268;2023-09-30T00:49:25;99750.34;;;18.51;60.12
77685;BME280;66844;46.092;18.268;2023-09-30T00:49:57;99752.84;;;18.42;61.25
77685;BME280;66844;46.092;18.268;2023-09-30T00:50:29;99751.28;;;18.40;61.61
77685;BME280;66844;46.092;18.268;2023-09-30T00:51:02;99750.09;;;18.33;61.63
77685;BME280;66844;46.092;18.268;2023-09-30T00:51:35;99741.53;;;18.28;61.77
77685;BME280;66844;46.092;18.268;2023-09-30T00:52:07;99749.28;;;18.21;62.76
77685;BME280;66844;46.092;18.268;2023-09-30T00:52:39;99748.69;;;18.18;61.58
77685;BME280;66844;46.092;18.268;2023-09-30T00:53:13;99749.09;;;18.13;62.36
77685;BME280;66844;46.092;18.268;2023-09-30T00:53:45;99751.19;;;18.10;62.42
77685;BME280;66844;46.092;18.268;2023-09-30T00:54:17;99749.34;;;18.10;62.88
77685;BME280;66844;46.092;18.268;2023-09-30T00:54:52;99747.69;;;17.98;63.31
77685;BME280;66844;46.092;18.268;2023-09-30T00:55:25;99749.94;;;17.93;63.65
77685;BME280;66844;46.092;18.268;2023-09-30T00:55:58;99750.19;;;17.90;63.52
77685;BME280;66844;46.092;18.268;2023-09-30T00:56:30;99744.91;;;17.88;63.72
77685;BME280;66844;46.092;18.268;2023-09-30T00:57:02;99744.44;;;17.83;63.84
77685;BME280;66844;46.092;18.268;2023-09-30T00:57:35;99742.50;;;17.85;63.71
77685;BME280;66844;46.092;18.268;2023-09-30T00:58:07;99753.16;;;17.76;64.94
77685;BME280;66844;46.092;18.268;2023-09-30T00:58:41;99750.22;;;17.79;64.02
77685;BME280;66844;46.092;18.268;2023-09-30T00:59:13;99750.88;;;17.71;64.89
77685;BME280;66844;46.092;18.268;2023-09-30T00:59:47;99742.69;;;17.62;64.68
77685;BME280;66844;46.092;18.268;2023-09-30T01:00:19;99748.44;;;17.57;65.45
77685;BME280;66844;46.092;18.268;2023-09-30T01:00:52;99745.97;;;17.54;65.46
77685;BME280;66844;46.092;18.268;2023-09-30T01:01:25;99759.19;;;17.57;64.47
77685;BME280;66844;46.092;18.268;2023-09-30T01:01:58;99759.56;;;17.53;65.88
77685;BME280;66844;46.092;18.268;2023-09-30T01:02:31;99750.50;;;17.54;64.78
77685;BME280;66844;46.092;18.268;2023-09-30T01:03:03;99752.84;;;17.47;65.88
77685;BME280;66844;46.092;18.268;2023-09-30T01:03:37;99750.38;;;17.55;64.85
77685;BME280;66844;46.092;18.268;2023-09-30T01:04:10;99744.50;;;17.61;64.47
77685;BME280;66844;46.092;18.268;2023-09-30T01:04:43;99745.50;;;17.60;65.14
77685;BME280;66844;46.092;18.268;2023-09-30T01:05:15;99745.63;;;17.59;64.59
77685;BME280;66844;46.092;18.268;2023-09-30T01:05:47;99744.78;;;17.58;64.47
77685;BME280;66844;46.092;18.268;2023-09-30T01:06:21;99751.72;;;17.50;65.34
77685;BME280;66844;46.092;18.268;2023-09-30T01:06:53;99755.28;;;17.50;65.01
77685;BME280;66844;46.092;18.268;2023-09-30T01:07:25;99746.75;;;17.45;65.60
77685;BME280;66844;46.092;18.268;2023-09-30T01:07:57;99748.69;;;17.43;65.78
77685;BME280;66844;46.092;18.268;2023-09-30T01:08:30;99748.06;;;17.39;65.86
77685;BME280;66844;46.092;18.268;2023-09-30T01:09:03;99747.22;;;17.39;65.97
77685;BME280;66844;46.092;18.268;2023-09-30T01:09:35;99746.75;;;17.34;65.69
77685;BME280;66844;46.092;18.268;2023-09-30T01:10:08;99750.53;;;17.31;66.31
77685;BME280;66844;46.092;18.268;2023-09-30T01:10:40;99743.56;;;17.29;66.25
77685;BME280;66844;46.092;18.268;2023-09-30T01:11:13;99752.16;;;17.23;66.77
77685;BME280;66844;46.092;18.268;2023-09-30T01:11:45;99742.72;;;17.17;66.54
77685;BME280;66844;46.092;18.268;2023-09-30T01:12:17;99746.78;;;17.12;67.62
77685;BME280;66844;46.092;18.268;2023-09-30T01:12:49;99749.34;;;17.13;67.43
77685;BME280;66844;46.092;18.268;2023-09-30T01:13:21;99746.78;;;17.12;67.38
77685;BME280;66844;46.092;18.268;2023-09-30T01:13:53;99753.00;;;17.12;66.90
77685;BME280;66844;46.092;18.268;2023-09-30T01:14:30;99755.22;;;17.07;68.09
77685;BME280;66844;46.092;18.268;2023-09-30T01:15:03;99751.31;;;17.11;67.81
77685;BME280;66844;46.092;18.268;2023-09-30T01:15:39;99751.56;;;17.08;67.85
77685;BME280;66844;46.092;18.268;2023-09-30T01:16:11;99750.81;;;17.06;67.45
77685;BME280;66844;46.092;18.268;2023-09-30T01:16:43;99750.69;;;17.08;67.87
77685;BME280;66844;46.092;18.268;2023-09-30T01:17:15;99748.00;;;17.08;67.71
77685;BME280;66844;46.092;18.268;2023-09-30T01:17:47;99752.38;;;17.09;66.91
77685;BME280;66844;46.092;18.268;2023-09-30T01:18:19;99749.84;;;17.07;67.53
77685;BME280;66844;46.092;18.268;2023-09-30T01:18:51;99759.13;;;17.03;67.72
77685;BME280;66844;46.092;18.268;2023-09-30T01:19:25;99757.28;;;17.04;67.88
77685;BME280;66844;46.092;18.268;2023-09-30T01:19:57;99754.00;;;17.00;67.58
77685;BME280;66844;46.092;18.268;2023-09-30T01:20:31;99759.13;;;17.03;67.44
77685;BME280;66844;46.092;18.268;2023-09-30T01:21:04;99756.44;;;17.03;67.51
77685;BME280;66844;46.092;18.268;2023-09-30T01:21:37;99764.50;;;17.03;67.65
77685;BME280;66844;46.092;18.268;2023-09-30T01:22:09;99755.81;;;17.00;67.46
77685;BME280;66844;46.092;18.268;2023-09-30T01:22:41;99754.09;;;16.98;67.93
77685;BME280;66844;46.092;18.268;2023-09-30T01:23:16;99756.06;;;16.96;68.04
77685;BME280;66844;46.092;18.268;2023-09-30T01:23:49;99752.53;;;16.96;68.24
77685;BME280;66844;46.092;18.268;2023-09-30T01:24:21;99757.91;;;16.96;67.87
77685;BME280;66844;46.092;18.268;2023-09-30T01:24:53;99760.84;;;16.93;68.44
77685;BME280;66844;46.092;18.268;2023-09-30T01:25:25;99752.16;;;16.89;68.50
77685;BME280;66844;46.092;18.268;2023-09-30T01:25:57;99754.09;;;16.87;68.40
77685;BME280;66844;46.092;18.268;2023-09-30T01:26:30;99758.88;;;16.84;68.53
77685;BME280;66844;46.092;18.268;2023-09-30T01:27:02;99750.69;;;16.85;68.80
77685;BME280;66844;46.092;18.268;2023-09-30T01:27:34;99756.19;;;16.84;68.28
77685;BME280;66844;46.092;18.268;2023-09-30T01:28:09;99758.97;;;16.82;69.02
77685;BME280;66844;46.092;18.268;2023-09-30T01:28:42;99754.47;;;16.83;68.71
77685;BME280;66844;46.092;18.268;2023-09-30T01:29:14;99751.91;;;16.81;68.25
77685;BME280;66844;46.092;18.268;2023-09-30T01:29:46;99758.00;;;16.83;68.67
77685;BME280;66844;46.092;18.268;2023-09-30T01:30:18;99755.22;;;16.85;68.33
77685;BME280;66844;46.092;18.268;2023-09-30T01:30:50;99745.53;;;16.82;68.65
77685;BME280;66844;46.092;18.268;2023-09-30T01:31:23;99758.00;;;16.83;68.70
77685;BME280;66844;46.092;18.268;2023-09-30T01:31:55;99757.03;;;16.84;68.26
77685;BME280;66844;46.092;18.268;2023-09-30T01:32:27;99746.28;;;16.84;68.27
77685;BME280;66844;46.092;18.268;2023-09-30T01:33:00;99751.56;;;16.86;68.10
77685;BME280;66844;46.092;18.268;2023-09-30T01:33:32;99746.19;;;16.86;67.93
77685;BME280;66844;46.092;18.268;2023-09-30T01:34:05;99753.38;;;16.85;68.04
77685;BME280;66844;46.092;18.268;2023-09-30T01:34:37;99753.25;;;16.87;67.99
77685;BME280;66844;46.092;18.268;2023-09-30T01:35:09;99745.06;;;16.88;68.17
77685;BME280;66844;46.092;18.268;2023-09-30T01:35:41;99743.25;;;16.89;68.25
77685;BME280;66844;46.092;18.268;2023-09-30T01:36:13;99751.31;;;16.89;67.74
77685;BME280;66844;46.092;18.268;2023-09-30T01:36:45;99749.34;;;16.91;67.66
77685;BME280;66844;46.092;18.268;2023-09-30T01:37:18;99747.50;;;16.91;68.02
77685;BME280;66844;46.092;18.268;2023-09-30T01:37:50;99747.41;;;16.93;68.04
77685;BME280;66844;46.092;18.268;2023-09-30T01:38:22;99753.59;;;16.93;68.07
77685;BME280;66844;46.092;18.268;2023-09-30T01:38:54;99746.41;;;16.94;67.67
77685;BME280;66844;46.092;18.268;2023-09-30T01:39:26;99743.00;;;16.92;67.54
77685;BME280;66844;46.092;18.268;2023-09-30T01:39:58;99747.50;;;16.91;67.78
77685;BME280;66844;46.092;18.268;2023-09-30T01:40:30;99741.03;;;16.94;67.47
77685;BME280;66844;46.092;18.268;2023-09-30T01:41:02;99744.72;;;16.93;67.70
77685;BME280;66844;46.092;18.268;2023-09-30T01:41:34;99744.72;;;16.93;68.20
77685;BME280;66844;46.092;18.268;2023-09-30T01:42:06;99745.69;;;16.92;67.83
77685;BME280;66844;46.092;18.268;2023-09-30T01:42:38;99743.25;;;16.89;67.97
77685;BME280;66844;46.092;18.268;2023-09-30T01:43:10;99748.72;;;16.87;68.32
77685;BME280;66844;46.092;18.268;2023-09-30T01:43:45;99740.81;;;16.86;68.14
77685;BME280;66844;46.092;18.268;2023-09-30T01:44:18;99745.44;;;16.84;68.85
77685;BME280;66844;46.092;18.268;2023-09-30T01:44:50;99748.22;;;16.82;68.45
77685;BME280;66844;46.092;18.268;2023-09-30T01:45:22;99747.41;;;16.82;68.35
77685;BME280;66844;46.092;18.268;2023-09-30T01:45:54;99746.66;;;16.80;69.15
77685;BME280;66844;46.092;18.268;2023-09-30T01:46:26;99748.63;;;16.78;69.07
77685;BME280;66844;46.092;18.268;2023-09-30T01:46:58;99739.56;;;16.79;68.39
77685;BME280;66844;46.092;18.268;2023-09-30T01:47:30;99750.81;;;16.84;67.61
77685;BME280;66844;46.092;18.268;2023-09-30T01:48:02;99741.63;;;16.86;68.15
77685;BME280;66844;46.092;18.268;2023-09-30T01:48:34;99747.16;;;16.85;67.73
77685;BME280;66844;46.092;18.268;2023-09-30T01:49:06;99746.66;;;16.91;67.08
77685;BME280;66844;46.092;18.268;2023-09-30T01:49:38;99752.03;;;16.91;67.30
77685;BME280;66844;46.092;18.268;2023-09-30T01:50:10;99744.56;;;16.94;66.64
77685;BME280;66844;46.092;18.268;2023-09-30T01:50:42;99749.34;;;17.02;66.36
77685;BME280;66844;46.092;18.268;2023-09-30T01:51:14;99742.03;;;17.04;65.85
77685;BME280;66844;46.092;18.268;2023-09-30T01:51:46;99748.00;;;17.08;66.23
77685;BME280;66844;46.092;18.268;2023-09-30T01:52:18;99743.50;;;17.08;65.77
77685;BME280;66844;46.092;18.268;2023-09-30T01:52:50;99752.16;;;17.12;66.20
77685;BME280;66844;46.092;18.268;2023-09-30T01:53:22;99751.31;;;17.11;66.24
77685;BME280;66844;46.092;18.268;2023-09-30T01:53:54;99754.00;;;17.11;66.22
77685;BME280;66844;46.092;18.268;2023-09-30T01:54:27;99744.22;;;17.10;66.17
77685;BME280;66844;46.092;18.268;2023-09-30T01:54:59;99748.25;;;17.16;65.65
77685;BME280;66844;46.092;18.268;2023-09-30T01:55:31;99747.25;;;17.17;65.85
77685;BME280;66844;46.092;18.268;2023-09-30T01:56:03;99748.09;;;17.17;66.80
77685;BME280;66844;46.092;18.268;2023-09-30T01:56:35;99750.53;;;17.20;66.09
77685;BME280;66844;46.092;18.268;2023-09-30T01:57:07;99754.00;;;17.11;67.11
77685;BME280;66844;46.092;18.268;2023-09-30T01:57:39;99748.25;;;17.05;67.34
77685;BME280;66844;46.092;18.268;2023-09-30T01:58:11;99751.41;;;16.98;68.34
77685;BME280;66844;46.092;18.268;2023-09-30T01:58:43;99747.25;;;16.94;68.40
77685;BME280;66844;46.092;18.268;2023-09-30T01:59:15;99750.31;;;16.90;68.38
77685;BME280;66844;46.092;18.268;2023-09-30T01:59:48;99749.59;;;16.88;68.49
77685;BME280;66844;46.092;18.268;2023-09-30T02:00:20;99753.13;;;16.88;68.34
77685;BME280;66844;46.092;18.268;2023-09-30T02:00:53;99748.72;;;16.87;68.64
77685;BME280;66844;46.092;18.268;2023-09-30T02:01:24;99748.72;;;16.87;68.15
77685;BME280;66844;46.092;18.268;2023-09-30T02:01:57;99747.25;;;16.83;69.14
77685;BME280;66844;46.092;18.268;2023-09-30T02:02:28;99744.94;;;16.79;69.51
77685;BME280;66844;46.092;18.268;2023-09-30T02:03:00;99750.09;;;16.82;68.59
77685;BME280;66844;46.092;18.268;2023-09-30T02:03:33;99745.44;;;16.84;68.33
77685;BME280;66844;46.092;18.268;2023-09-30T02:04:05;99746.03;;;16.87;67.80
77685;BME280;66844;46.092;18.268;2023-09-30T02:04:38;99748.88;;;16.86;68.78
77685;BME280;66844;46.092;18.268;2023-09-30T02:05:10;99751.41;;;16.87;68.17
77685;BME280;66844;46.092;18.268;2023-09-30T02:05:42;99754.34;;;16.84;68.45
77685;BME280;66844;46.092;18.268;2023-09-30T02:06:14;99751.41;;;16.76;69.86
77685;BME280;66844;46.092;18.268;2023-09-30T02:06:46;99750.19;;;16.69;70.01
77685;BME280;66844;46.092;18.268;2023-09-30T02:07:19;99750.28;;;16.68;70.01
77685;BME280;66844;46.092;18.268;2023-09-30T02:07:51;99754.34;;;16.73;68.86
77685;BME280;66844;46.092;18.268;2023-09-30T02:08:23;99748.00;;;16.74;68.53
77685;BME280;66844;46.092;18.268;2023-09-30T02:08:55;99756.06;;;16.74;69.48
77685;BME280;66844;46.092;18.268;2023-09-30T02:09:27;99747.16;;;16.74;68.75
77685;BME280;66844;46.092;18.268;2023-09-30T02:09:59;99746.91;;;16.77;68.84
77685;BME280;66844;46.092;18.268;2023-09-30T02:10:32;99746.78;;;16.78;68.20
77685;BME280;66844;46.092;18.268;2023-09-30T02:11:07;99752.03;;;16.80;68.84
77685;BME280;66844;46.092;18.268;2023-09-30T02:11:39;99749.47;;;16.78;68.78
77685;BME280;66844;46.092;18.268;2023-09-30T02:12:13;99746.28;;;16.73;69.66
77685;BME280;66844;46.092;18.268;2023-09-30T02:12:45;99744.47;;;16.74;69.56
77685;BME280;66844;46.092;18.268;2023-09-30T02:13:18;99741.78;;;16.74;69.25
77685;BME280;66844;46.092;18.268;2023-09-30T02:13:51;99751.56;;;16.75;68.75
77685;BME280;66844;46.092;18.268;2023-09-30T02:14:23;99750.31;;;16.79;68.72
77685;BME280;66844;46.092;18.268;2023-09-30T02:14:58;99745.94;;;16.78;68.60
77685;BME280;66844;46.092;18.268;2023-09-30T02:15:30;99745.31;;;16.74;68.69
77685;BME280;66844;46.092;18.268;2023-09-30T02:16:02;99744.72;;;16.82;68.27
77685;BME280;66844;46.092;18.268;2023-09-30T02:16:34;99740.16;;;16.82;68.14
77685;BME280;66844;46.092;18.268;2023-09-30T02:17:06;99750.69;;;16.85;67.91
77685;BME280;66844;46.092;18.268;2023-09-30T02:17:38;99749.84;;;16.85;67.87
77685;BME280;66844;46.092;18.268;2023-09-30T02:18:10;99750.56;;;16.87;68.26
77685;BME280;66844;46.092;18.268;2023-09-30T02:18:43;99745.94;;;16.89;67.64
77685;BME280;66844;46.092;18.268;2023-09-30T02:19:17;99748.63;;;16.78;69.54
77685;BME280;66844;46.092;18.268;2023-09-30T02:19:49;99747.38;;;16.71;70.16
77685;BME280;66844;46.092;18.268;2023-09-30T02:20:21;99743.72;;;16.72;68.26
77685;BME280;66844;46.092;18.268;2023-09-30T02:20:57;99749.06;;;16.72;69.49
77685;BME280;66844;46.092;18.268;2023-09-30T02:21:31;99745.41;;;16.73;68.89
77685;BME280;66844;46.092;18.268;2023-09-30T02:22:03;99751.75;;;16.72;69.15
77685;BME280;66844;46.092;18.268;2023-09-30T02:22:36;99740.53;;;16.67;69.96
77685;BME280;66844;46.092;18.268;2023-09-30T02:23:11;99749.47;;;16.67;69.59
77685;BME280;66844;46.092;18.268;2023-09-30T02:23:43;99751.03;;;16.59;71.25
77685;BME280;66844;46.092;18.268;2023-09-30T02:24:19;99751.44;;;16.52;71.95
77685;BME280;66844;46.092;18.268;2023-09-30T02:24:51;99747.94;;;16.52;71.21
77685;BME280;66844;46.092;18.268;2023-09-30T02:25:23;99759.75;;;16.49;71.79
77685;BME280;66844;46.092;18.268;2023-09-30T02:25:55;99753.78;;;16.46;71.61
77685;BME280;66844;46.092;18.268;2023-09-30T02:26:27;99745.84;;;16.44;71.11
77685;BME280;66844;46.092;18.268;2023-09-30T02:27:01;99749.00;;;16.49;70.67
77685;BME280;66844;46.092;18.268;2023-09-30T02:27:33;99744.50;;;16.50;70.30
77685;BME280;66844;46.092;18.268;2023-09-30T02:28:06;99754.16;;;16.52;69.91
77685;BME280;66844;46.092;18.268;2023-09-30T02:28:38;99749.53;;;16.55;69.39
77685;BME280;66844;46.092;18.268;2023-09-30T02:29:10;99748.44;;;16.57;68.79
77685;BME280;66844;46.092;18.268;2023-09-30T02:29:42;99746.75;;;16.56;68.74
77685;BME280;66844;46.092;18.268;2023-09-30T02:30:14;99745.75;;;16.57;68.99
77685;BME280;66844;46.092;18.268;2023-09-30T02:30:48;99752.75;;;16.60;68.19
77685;BME280;66844;46.092;18.268;2023-09-30T02:31:20;99752.50;;;16.63;69.31
77685;BME280;66844;46.092;18.268;2023-09-30T02:31:54;99749.31;;;16.58;69.96
77685;BME280;66844;46.092;18.268;2023-09-30T02:32:26;99746.75;;;16.56;69.10
77685;BME280;66844;46.092;18.268;2023-09-30T02:32:58;99750.91;;;16.60;68.84
77685;BME280;66844;46.092;18.268;2023-09-30T02:33:31;99752.59;;;16.61;68.28
77685;BME280;66844;46.092;18.268;2023-09-30T02:34:03;99747.13;;;16.63;68.55
77685;BME280;66844;46.092;18.268;2023-09-30T02:34:36;99755.66;;;16.68;68.19
77685;BME280;66844;46.092;18.268;2023-09-30T02:35:09;99748.59;;;16.67;69.61
77685;BME280;66844;46.092;18.268;2023-09-30T02:35:45;99742.84;;;16.60;69.35
77685;BME280;66844;46.092;18.268;2023-09-30T02:36:18;99748.00;;;16.63;68.80
77685;BME280;66844;46.092;18.268;2023-09-30T02:36:50;99752.50;;;16.63;69.03
77685;BME280;66844;46.092;18.268;2023-09-30T02:37:23;99747.13;;;16.63;68.89
77685;BME280;66844;46.092;18.268;2023-09-30T02:37:55;99741.88;;;16.61;69.73
77685;BME280;66844;46.092;18.268;2023-09-30T02:38:27;99747.38;;;16.60;69.61
77685;BME280;66844;46.092;18.268;2023-09-30T02:38:59;99755.19;;;16.63;69.39
77685;BME280;66844;46.092;18.268;2023-09-30T02:39:32;99758.34;;;16.68;68.04
77685;BME280;66844;46.092;18.268;2023-09-30T02:40:05;99754.69;;;16.69;68.66
77685;BME280;66844;46.092;18.268;2023-09-30T02:40:41;99752.97;;;16.68;68.15
77685;BME280;66844;46.092;18.268;2023-09-30T02:41:17;99753.59;;;16.71;68.09
77685;BME280;66844;46.092;18.268;2023-09-30T02:41:49;99761.66;;;16.71;67.89
77685;BME280;66844;46.092;18.268;2023-09-30T02:42:22;99753.47;;;16.73;67.90
77685;BME280;66844;46.092;18.268;2023-09-30T02:42:55;99753.47;;;16.73;68.08
77685;BME280;66844;46.092;18.268;2023-09-30T02:43:27;99752.38;;;16.75;68.13
77685;BME280;66844;46.092;18.268;2023-09-30T02:43:59;99758.50;;;16.77;67.74
77685;BME280;66844;46.092;18.268;2023-09-30T02:44:31;99755.69;;;16.79;68.11
77685;BME280;66844;46.092;18.268;2023-09-30T02:45:04;99752.03;;;16.80;67.95
77685;BME280;66844;46.092;18.268;2023-09-30T02:45:37;99752.88;;;16.80;68.16
77685;BME280;66844;46.092;18.268;2023-09-30T02:46:09;99763.75;;;16.79;68.08
77685;BME280;66844;46.092;18.268;2023-09-30T02:46:41;99756.44;;;16.81;67.61
77685;BME280;66844;46.092;18.268;2023-09-30T02:47:14;99759.97;;;16.81;67.43
77685;BME280;66844;46.092;18.268;2023-09-30T02:47:45;99763.63;;;16.80;67.47
77685;BME280;66844;46.092;18.268;2023-09-30T02:48:18;99756.53;;;16.79;67.92
77685;BME280;66844;46.092;18.268;2023-09-30T02:48:51;99754.84;;;16.78;68.24
77685;BME280;66844;46.092;18.268;2023-09-30T02:49:23;99759.38;;;16.78;67.74
77685;BME280;66844;46.092;18.268;2023-09-30T02:49:57;99751.66;;;16.73;68.33
77685;BME280;66844;46.092;18.268;2023-09-30T02:50:29;99757.75;;;16.75;68.31